Jennifer — WDF6480 — position and weather

sailwx.info

Track history (hours):
 
Tides and Currents Weather Stations Pressure Air Temp Water Temp Dewpoint Dewpoint Depression Visibility Wind Speed Wind Dir Waves Ship Positions

Jennifer

Owner: John W. Stone Oil Distributor, L.L.C., Gretna, LA. More information available from US FCC via Universal Licensing System and Coast Guard Vessel Documentation Center.

Last reported at 2014-Oct-31 23:21 UTC. Time now 2014-Nov-01 04:06 UTC.
Position N 29°54' W 090°07'.

Length 18 m; draft 3 m.

Type: Tug. MMSI: 367474690.

Date/timePositionNaut miles runAvg speedWind from/ knotsBaromVisibWave heightAir tempDewpointWater temp
2014-Oct-31 23:21N 29°54' W 090°07'3 1.2
2014-Oct-31 21:03N 29°55' W 090°04'2 3.9
2014-Oct-31 20:28N 29°57' W 090°02'2 1.0
2014-Oct-31 18:12N 29°56' W 089°60'1 0.0
2014-Oct-29 21:14N 29°56' W 089°59'4 4.9
2014-Oct-29 20:26N 29°55' W 090°04'0 0.1
2014-Oct-29 19:32N 29°55' W 090°04'0 0.0
2014-Oct-29 18:32N 29°55' W 090°04'0 0.0
2014-Oct-29 17:33N 29°55' W 090°04'0 0.0
2014-Oct-29 16:24N 29°55' W 090°04'0 0.0
2014-Oct-29 15:14N 29°55' W 090°04'0 0.0
2014-Oct-29 02:22N 29°56' W 090°04'0 0.0
2014-Oct-29 01:32N 29°56' W 090°04'0 0.1
2014-Oct-29 00:33N 29°56' W 090°04'0 0.1
2014-Oct-28 23:31N 29°55' W 090°04'1 1.2
2014-Oct-28 22:26N 29°55' W 090°05'4 0.1
2014-Oct-27 17:33N 29°57' W 090°02'2 2.3
2014-Oct-27 16:33N 29°56' W 090°04'0 0.1
2014-Oct-27 15:28N 29°56' W 090°04'0 0.0
2014-Oct-27 14:27N 29°56' W 090°04'0 0.0
2014-Oct-27 09:22N 29°55' W 090°04'8 0.3
2014-Oct-26 08:33N 29°54' W 089°54'8 7.6
2014-Oct-26 07:33N 29°57' W 090°02'2 2.2
2014-Oct-26 06:33N 29°56' W 090°04'0 0.1
2014-Oct-26 05:33N 29°56' W 090°04'0 0.1
2014-Oct-26 04:30N 29°56' W 090°04'0 0.1
2014-Oct-26 03:31N 29°56' W 090°04'4 0.3
2014-Oct-25 13:32N 29°56' W 089°59'4 3.7
2014-Oct-25 12:24N 29°56' W 090°03'0 0.0
2014-Oct-25 11:18N 29°56' W 090°03'0 0.0
2014-Oct-25 10:33N 29°56' W 090°03'0 0.0
2014-Oct-25 09:32N 29°56' W 090°03'0 0.2
2014-Oct-25 08:32N 29°56' W 090°03'0 0.2
2014-Oct-25 07:33N 29°56' W 090°04'0 0.0
2014-Oct-25 06:25N 29°56' W 090°04'0 0.0
2014-Oct-25 05:26N 29°56' W 090°04'0 0.0
2014-Oct-24 13:33N 29°56' W 090°04'0 0.0
2014-Oct-24 12:32N 29°56' W 090°04'0 0.0
2014-Oct-24 11:30N 29°56' W 090°04'0 0.1
2014-Oct-24 10:33N 29°56' W 090°04'0 0.0
2014-Oct-24 09:33N 29°56' W 090°04'0 0.0
2014-Oct-24 08:33N 29°56' W 090°04'0 0.0
2014-Oct-24 07:32N 29°56' W 090°04'0 0.0
2014-Oct-24 06:33N 29°56' W 090°04'0 0.0
2014-Oct-24 05:28N 29°56' W 090°04'0 0.0
2014-Oct-24 04:33N 29°56' W 090°04'0 0.1
2014-Oct-24 03:32N 29°56' W 090°03'0 0.3
2014-Oct-24 02:27N 29°55' W 090°04'3 0.2
2014-Oct-23 12:25N 29°56' W 089°60'0 0.0
2014-Oct-23 11:28N 29°56' W 089°60'0 0.0
2014-Oct-23 10:32N 29°56' W 089°60'  
Track history (hours):
 
Tides and Currents Weather Stations Pressure Air Temp Water Temp Dewpoint Dewpoint Depression Visibility Wind Speed Wind Dir Waves Ship Positions

Jennifer

Owner: John W. Stone Oil Distributor, L.L.C., Gretna, LA. More information available from US FCC via Universal Licensing System and Coast Guard Vessel Documentation Center.

Last reported at 2014-Oct-31 23:21 UTC. Time now 2014-Nov-01 04:06 UTC.
Position N 29°54' W 090°07'.

Length 18 m; draft 3 m.

Type: Tug. MMSI: 367474690.

Date/timePositionNaut miles runAvg speedWind from/ knotsBaromVisibWave heightAir tempDewpointWater temp
2014-Oct-31 23:21N 29°54' W 090°07'3 1.2
2014-Oct-31 21:03N 29°55' W 090°04'2 3.9
2014-Oct-31 20:28N 29°57' W 090°02'2 1.0
2014-Oct-31 18:12N 29°56' W 089°60'1 0.0
2014-Oct-29 21:14N 29°56' W 089°59'4 4.9
2014-Oct-29 20:26N 29°55' W 090°04'0 0.1
2014-Oct-29 19:32N 29°55' W 090°04'0 0.0
2014-Oct-29 18:32N 29°55' W 090°04'0 0.0
2014-Oct-29 17:33N 29°55' W 090°04'0 0.0
2014-Oct-29 16:24N 29°55' W 090°04'0 0.0
2014-Oct-29 15:14N 29°55' W 090°04'0 0.0
2014-Oct-29 02:22N 29°56' W 090°04'0 0.0
2014-Oct-29 01:32N 29°56' W 090°04'0 0.1
2014-Oct-29 00:33N 29°56' W 090°04'0 0.1
2014-Oct-28 23:31N 29°55' W 090°04'1 1.2
2014-Oct-28 22:26N 29°55' W 090°05'4 0.1
2014-Oct-27 17:33N 29°57' W 090°02'2 2.3
2014-Oct-27 16:33N 29°56' W 090°04'0 0.1
2014-Oct-27 15:28N 29°56' W 090°04'0 0.0
2014-Oct-27 14:27N 29°56' W 090°04'0 0.0
2014-Oct-27 09:22N 29°55' W 090°04'8 0.3
2014-Oct-26 08:33N 29°54' W 089°54'8 7.6
2014-Oct-26 07:33N 29°57' W 090°02'2 2.2
2014-Oct-26 06:33N 29°56' W 090°04'0 0.1
2014-Oct-26 05:33N 29°56' W 090°04'0 0.1
2014-Oct-26 04:30N 29°56' W 090°04'0 0.1
2014-Oct-26 03:31N 29°56' W 090°04'4 0.3
2014-Oct-25 13:32N 29°56' W 089°59'4 3.7
2014-Oct-25 12:24N 29°56' W 090°03'0 0.0
2014-Oct-25 11:18N 29°56' W 090°03'0 0.0
2014-Oct-25 10:33N 29°56' W 090°03'0 0.0
2014-Oct-25 09:32N 29°56' W 090°03'0 0.2
2014-Oct-25 08:32N 29°56' W 090°03'0 0.2
2014-Oct-25 07:33N 29°56' W 090°04'0 0.0
2014-Oct-25 06:25N 29°56' W 090°04'0 0.0
2014-Oct-25 05:26N 29°56' W 090°04'0 0.0
2014-Oct-24 13:33N 29°56' W 090°04'0 0.0
2014-Oct-24 12:32N 29°56' W 090°04'0 0.0
2014-Oct-24 11:30N 29°56' W 090°04'0 0.1
2014-Oct-24 10:33N 29°56' W 090°04'0 0.0
2014-Oct-24 09:33N 29°56' W 090°04'0 0.0
2014-Oct-24 08:33N 29°56' W 090°04'0 0.0
2014-Oct-24 07:32N 29°56' W 090°04'0 0.0
2014-Oct-24 06:33N 29°56' W 090°04'0 0.0
2014-Oct-24 05:28N 29°56' W 090°04'0 0.0
2014-Oct-24 04:33N 29°56' W 090°04'0 0.1
2014-Oct-24 03:32N 29°56' W 090°03'0 0.3
2014-Oct-24 02:27N 29°55' W 090°04'3 0.2
2014-Oct-23 12:25N 29°56' W 089°60'0 0.0
2014-Oct-23 11:28N 29°56' W 089°60'0 0.0
2014-Oct-23 10:32N 29°56' W 089°60'  

Dump ship's entire track history